Portada
METAR-TAF:

METAR-TAF

Aeroports :

Farmingdale, Nova York, Estats Units d'Amèrica

latitud: 40-44-03N, longitud: 073-25-01W, altitud: 24 m

Observació

L'informe es va fer fa 25 minuts, a les 11:53 UTC
Vent 8 kt del Nord/Nord-Est
Temperatura 23°C
Humitat 73%
Pressió 1016 hPa
Visibilitat: 16.1 km
Cel clar

METAR: KFRG 261153Z AUTO 03008KT 10SM CLR 23/18 A3001 RMK AO2 SLP162 70014 T02330178 10233 20200 52016

Hora: 08:18 (12:18 UTC)


TAF: manca

Observacions i pronòstics meteorològics de més de 4000 aeroports (METAR i TAF).

Les estacions disponibles són els punts grocs i vermells al mapa.

Posi el ratolí al punt desitjat per veure el nom de l'estació.

Feu clic per veure les observacions i els pronòstics meteorològics.

Per canviar el mapa: feu clic els botons verds amb una creu de color negre per apropar; al botó verd amb un guió per allunyar la imatge; o en les fletxes verdes per a mapes adjacents.


METAR-TAF: